5TX6 weather

Hilliard Landing Area Airport
Lewisville, Texas, United States

Public forecast

Using degrees Fahrenheit for public forecast. Weather courtesy of forecast.io.

METAR (pilot weather report)

Closest report is Dallas Fort Worth International Airport, 7.4 nm (13.7 km) SSE. Retrieved 2019/07/23 16:53 UTC (38 minutes ago):

KDFW 231653Z 01008KT 320V050 10SM SCT050 31/16 A3014 RMK AO2 SLP197 T03060161

TAF (pilot weather forecast)

Closest forecast is Dallas Fort Worth International Airport, 7.4 nm (13.7 km) SSE. Retrieved 2019/07/23 12:22 UTC (5 hours ago):

TAF KDFW 231120Z 2312/2418 02011KT P6SM FEW060 SCT250 FM241200 04004KT P6SM SCT250 FM241500 11008KT P6SM SKC